Ginys del Meteocat

Dades de l'estació automàtica Terrassa

?
?
Resum diari 23:00 TU
Dades diàries de l'estació meteorològica
Temperatura mitjana 8.2 °C
Temperatura màxima 14.2 °C 13:43 TU
Temperatura mínima 3.9 °C 6:28 TU
Humitat relativa mitjana 82%
Precipitació acumulada 0.0 mm
Ratxa màxima del vent (10 m) 20.5 km/h - 242º 12:29 TU
Irradiació solar global 9.9 MJ/m2

El tram horari està expressat en Temps Universal (TU). Cal sumar una hora en horari d'hivern i dues en horari d'estiu per passar a l'hora oficial.

Terrassa

Metadades estació meteorol´gica
Municipi Terrassa
Comarca Vallès Occidental
Altitud 313 m
Data alta 20.12.2018
Estat actual Operativa
Dades de període
Període
TU
TM
°C
TX
°C
TN
°C
HRM
%
PPT
mm
VVM (10 m)
km/h
DVM (10 m)
graus
VVX (10 m)
km/h
RS
W/m2
00:00 - 00:30 5.9 6.2 5.7 93 0.0 3.2 281 10.4 0
00:30 - 01:00 5.9 6.1 5.6 92 0.0 4.3 287 8.6 0
01:00 - 01:30 5.5 5.6 5.3 94 0.0 5.0 253 9.0 0
01:30 - 02:00 5.3 5.5 5.1 93 0.0 5.0 253 10.8 0
02:00 - 02:30 5.4 5.4 5.2 93 0.0 5.4 247 12.6 0
02:30 - 03:00 5.5 5.7 5.3 92 0.0 4.0 254 7.2 0
03:00 - 03:30 5.4 5.6 4.9 92 0.0 5.0 248 9.0 0
03:30 - 04:00 4.7 4.9 4.5 96 0.0 6.8 263 12.6 0
04:00 - 04:30 5.1 5.3 4.8 94 0.0 7.6 278 17.3 0
04:30 - 05:00 4.6 4.9 4.5 95 0.0 5.8 259 13.3 0
05:00 - 05:30 4.3 4.7 3.9 96 0.0 7.6 255 14.0 0
05:30 - 06:00 4.2 4.3 4.1 95 0.0 7.2 261 11.2 0
06:00 - 06:30 4.1 4.2 3.9 95 0.0 6.8 270 12.2 0
06:30 - 07:00 4.2 4.5 4.0 94 0.0 5.0 260 11.5 0
07:00 - 07:30 4.3 4.5 4.0 94 0.0 5.8 258 9.7 8
07:30 - 08:00 4.8 5.1 4.4 91 0.0 0.7 243 4.7 45
08:00 - 08:30 5.3 5.7 5.0 89 0.0 5.0 277 13.0 102
08:30 - 09:00 6.1 6.5 5.7 88 0.0 6.5 271 13.7 168
09:00 - 09:30 7.1 7.6 6.6 85 0.0 6.5 268 13.3 240
09:30 - 10:00 7.3 8.0 6.8 85 0.0 6.8 266 12.6 319
10:00 - 10:30 8.6 9.3 8.0 80 0.0 7.2 272 15.1 385
10:30 - 11:00 9.7 10.4 9.1 77 0.0 6.1 263 10.4 433
11:00 - 11:30 11.0 11.5 10.3 73 0.0 6.1 249 10.4 472
11:30 - 12:00 11.9 12.5 11.5 70 0.0 6.1 245 11.9 492
12:00 - 12:30 12.3 12.5 12.0 65 0.0 11.9 231 20.5 498
12:30 - 13:00 12.6 13.0 12.3 61 0.0 11.2 249 18.7 486
13:00 - 13:30 13.1 13.7 12.8 57 0.0 9.0 249 15.1 456
13:30 - 14:00 13.9 14.2 13.6 58 0.0 7.6 251 12.6 396
14:00 - 14:30 13.9 14.2 13.7 59 0.0 9.7 248 15.5 366
14:30 - 15:00 13.7 14.0 13.6 59 0.0 10.8 240 14.8 283
15:00 - 15:30 13.7 13.9 13.6 60 0.0 9.0 244 13.7 203
15:30 - 16:00 13.5 13.6 13.1 62 0.0 8.6 250 13.7 123
16:00 - 16:30 12.4 13.0 11.8 69 0.0 6.8 237 9.7 44
16:30 - 17:00 11.5 11.8 11.2 72 0.0 8.3 230 10.4 10
17:00 - 17:30 10.6 11.2 10.0 73 0.0 6.5 240 11.2 0
17:30 - 18:00 9.4 9.9 9.1 78 0.0 4.0 256 5.4 0
18:00 - 18:30 9.0 9.2 8.8 79 0.0 4.3 251 5.4 0
18:30 - 19:00 9.0 9.4 8.6 79 0.0 3.2 272 5.0 0
19:00 - 19:30 8.3 8.7 7.9 83 0.0 4.7 276 7.6 0
19:30 - 20:00 8.0 8.3 7.8 84 0.0 5.8 263 8.6 0
20:00 - 20:30 8.1 8.5 7.8 85 0.0 8.3 242 11.2 0
20:30 - 21:00 7.8 8.1 7.5 87 0.0 6.5 252 9.0 0
21:00 - 21:30 7.8 8.1 7.6 88 0.0 2.5 7 6.5 0
21:30 - 22:00 7.7 8.1 7.3 88 0.0 4.3 60 6.8 0
22:00 - 22:30 7.3 7.4 7.2 89 0.0 3.2 59 6.1 0
22:30 - 23:00 7.5 7.7 7.3 87 0.0 2.2 70 5.4 0
23:00 - 23:30 7.7 7.9 7.5 86 0.0 3.2 68 5.0 0

Les dades en taronja només han passat un control de qualitat automàtic. Resta pendent la seva validació definitiva.